Skip Navigation LinksHome page > Weather > Current weather Skip Navigation Links

Current Weather

Eureka, Nunavut

For information only: do not use for flight planning or navigation.
Latest weather
Observation time Friday, January 30, 2015 3:00 AM CST
Local time Friday, January 30, 2015 3:20 AM CST
Flight conditions Visual Meteorological Conditions
Winds
Wind speed calm
Visibility 15 mi.
Sky condition
Ceiling unlimited
Sky clear
Temperature -45°F
Dewpoint -51°F
Altimeter 30.27 in.Hg
Derived measurements
Relative humidity 72%
Wind chill -45°F
Density altitude -8250 ft.
Sea-level pressure 30.28 in.Hg
METAR CWEU 300900Z 00000KT 15SM SKC M43/M46 A3027 RMK SLP254

Settings

Location code

InnerDrive.Weather 4.0.5505.0 Release CLR 4.0.30319.34014
Copyright ©2015 Inner Drive Technology. All rights reserved. Portions Copyright ©1986-2015 David Braverman.

Find weather

Site navigation


Skip Navigation Links

Place info

Page info

PayPal - The safer, easier way to pay online!

Return home.

Copyright ©2015 Inner Drive Technology. Purveyors of fine, hand-crafted computer software. Page printed 2015-01-30T09:20:51 UTC.